Airfield :
LOGIN :

Register | Disclaimer

   EN    FR    IT 

 










Legend :    VFR   Marginal VFR   IFR   Intensive IFR   Very Intensive IFR
Visi :
Ceiling :
>= 8 km
>= 3000ft
5 to 8 km
1000 to 3000 ft
1500m to 5 km
500 to 1000 ft
800 to 1500m
200 to 500 ft
< 800m
< 200 ft
Symbols :   Thunderstorms  Fog  Heavy snow  Heavy precipitations  Wind > 20 kt
SIGMETs :     Misc.  Thunderstorms  Icing  Turbulence  Mountain Waves  Volcanic Ashes







- Airport Elevation : 235 ft
- IATA code : BZG


EPBY - Bydgoszcz

CURRENT METAR :
  • 220730Z 22005KT 5000 BR NSC 05/05 Q1024

EXPIRED METARs :
  • 220700Z 22005KT 5000 BR NSC 04/04 Q1024
  • 220630Z 21004KT 160V250 4500 BR NSC 04/03 Q1024
  • 220600Z 21003KT 160V240 4200 BR FEW003 03/03 Q1024
  • 220530Z VRB01KT 2900 MIFG BR NSC 02/02 Q1024
  • 220500Z 19002KT 0450 0250W R26/1200U FZFG NSC M00/M01 Q1025

TAF TAF EPBY
Valid from the 22 at 06:00 until the 23 at 06:00 UTC


220530Z 2206/2306 20003KT 0300 FZFG NSC
BECMG 2206/2208 9999 BKN030
BECMG 2210/2212 27010KT
TEMPO 2212/2216 4000 SHRA BKN006 BKN013CB
No reported NOTAMs for that airfield.



MET'MAP, your aeronautical weather chart ! - Copyright ORBIFLY December 2007 - Disclaimer

ORBIFLY MET'MAP TEAM :

Programming & Development : Alexandra Zaïnal
Concept & Development : Baudouin d'Aumeries
Co-Development & Prog : Marc-Olivier Méhu
Technical & hardware support : Manuel Goepfert

Contact : metmap@orbifly.com




SOURCES & CREDITS :

   NOAA